Terminal Aerodrome Forecast
Issued by NWS Charleston, SC

Home | Current Version | Previous Version | Text Only | Print | Product List | Glossary On
Versions: 1 2 3 4 5 6 7 8 9 10 11 12 13 14 15 16
455
FTUS42 KCHS 241127
TAFSAV
TAF
KSAV 241127Z 2412/2512 22004KT P6SM SCT250
     FM241800 15010KT P6SM SCT040
     FM250100 18004KT P6SM FEW080=

USA.gov is the U.S. government's official web portal to all federal, state and local government web resources and services.